Time;durP1;ratioP1;P1;durP2;ratioP2;P2;SDS_P1;SDS_P2;PMS_P1;PMS_P2;Temp;Humidity;BMP_temperature;BMP_pressure;BME280_temperature;BME280_humidity;BME280_pressure;Samples;Min_cycle;Max_cycle;Signal;HPM_P1;HPM_P2
2023/07/13 00:00:27;;;;;;;16.45;9.23;;;;;;;17.37;100.00;95953.72;1040836;28;20029;-73
2023/07/13 00:00:58;;;;;;;13.57;9.40;;;;;;;17.34;100.00;95947.16;1038827;28;20030;-73
2023/07/13 00:01:28;;;;;;;14.38;9.43;;;;;;;17.34;100.00;95944.50;1034604;28;20021;-74
2023/07/13 00:01:59;;;;;;;14.95;9.73;;;;;;;17.39;100.00;95951.56;1037233;28;20025;-74
2023/07/13 00:02:29;;;;;;;13.60;9.35;;;;;;;17.36;100.00;95944.19;1031575;28;20034;-73
2023/07/13 00:03:00;;;;;;;15.68;9.80;;;;;;;17.39;100.00;95954.97;1035776;28;20037;-74
2023/07/13 00:03:34;;;;;;;19.20;10.30;;;;;;;17.40;100.00;95950.47;1038880;28;20068;-74
2023/07/13 00:04:05;;;;;;;16.45;9.98;;;;;;;17.40;100.00;95953.09;1036260;28;20025;-75
2023/07/13 00:04:36;;;;;;;11.77;9.20;;;;;;;17.35;100.00;95943.41;1038167;28;20025;-73
2023/07/13 00:05:07;;;;;;;11.95;8.93;;;;;;;17.37;100.00;95945.75;1041974;28;20032;-73
2023/07/13 00:05:37;;;;;;;14.63;9.15;;;;;;;17.41;100.00;95949.41;1033764;28;20416;-74
2023/07/13 00:06:08;;;;;;;15.80;9.02;;;;;;;17.41;100.00;95955.47;1035590;28;20033;-73
2023/07/13 00:06:38;;;;;;;23.38;10.30;;;;;;;17.35;100.00;95947.94;1033137;28;20120;-74
2023/07/13 00:07:09;;;;;;;14.18;8.98;;;;;;;17.38;100.00;95950.00;1035573;28;20458;-75
2023/07/13 00:07:39;;;;;;;15.40;9.93;;;;;;;17.43;100.00;95960.47;1033329;28;20025;-74
2023/07/13 00:08:11;;;;;;;12.93;9.35;;;;;;;17.35;100.00;95942.63;1037642;28;20054;-73
2023/07/13 00:08:42;;;;;;;15.55;9.85;;;;;;;17.38;100.00;95948.13;1038160;28;20539;-74
2023/07/13 00:09:13;;;;;;;15.73;9.60;;;;;;;17.39;100.00;95949.69;1039928;28;20032;-74
2023/07/13 00:09:43;;;;;;;14.82;9.48;;;;;;;17.42;100.00;95958.91;1034906;28;20102;-73
2023/07/13 00:10:14;;;;;;;13.65;9.40;;;;;;;17.43;100.00;95955.16;1035190;28;20038;-74
2023/07/13 00:10:46;;;;;;;11.60;9.23;;;;;;;17.43;100.00;95955.94;1036477;28;20037;-73
2023/07/13 00:11:17;;;;;;;16.15;9.70;;;;;;;17.41;100.00;95952.03;1034988;28;20415;-74
2023/07/13 00:11:51;;;;;;;13.00;9.15;;;;;;;17.40;100.00;95950.47;1039128;28;20040;-74
2023/07/13 00:12:27;;;;;;;18.95;8.63;;;;;;;17.42;100.00;95957.03;1035702;28;20037;-74
2023/07/13 00:12:57;;;;;;;19.77;9.07;;;;;;;17.45;100.00;95955.66;1031382;28;20037;-74
2023/07/13 00:13:29;;;;;;;13.98;8.55;;;;;;;17.46;100.00;95959.88;1028509;28;20066;-74
2023/07/13 00:13:59;;;;;;;23.75;11.07;;;;;;;17.43;100.00;95949.84;1031843;28;20037;-74
2023/07/13 00:14:30;;;;;;;16.70;9.85;;;;;;;17.47;100.00;95953.50;1036602;28;20022;-74
2023/07/13 00:15:02;;;;;;;17.80;9.57;;;;;;;17.42;100.00;95946.44;1029769;28;20045;-74
2023/07/13 00:15:33;;;;;;;16.75;11.30;;;;;;;17.47;100.00;95950.84;1032573;28;20124;-73
2023/07/13 00:16:03;;;;;;;15.57;10.05;;;;;;;17.47;100.00;95955.34;1030653;28;20096;-74
2023/07/13 00:16:35;;;;;;;17.60;9.52;;;;;;;17.46;100.00;95949.25;1038128;28;20033;-75
2023/07/13 00:17:05;;;;;;;14.80;9.45;;;;;;;17.47;100.00;95948.19;1037300;28;20017;-74
2023/07/13 00:17:38;;;;;;;18.20;9.15;;;;;;;17.45;100.00;95945.06;1039388;28;20025;-74
2023/07/13 00:18:08;;;;;;;14.93;8.70;;;;;;;17.40;100.00;95942.50;1042458;28;20406;-72
2023/07/13 00:18:39;;;;;;;14.52;8.70;;;;;;;17.47;100.00;95961.47;1033497;28;20120;-73
2023/07/13 00:19:11;;;;;;;15.18;8.82;;;;;;;17.45;100.00;95953.00;1031139;28;20477;-74
2023/07/13 00:19:41;;;;;;;13.90;9.68;;;;;;;17.41;100.00;95946.75;1033750;28;20029;-74
2023/07/13 00:20:12;;;;;;;10.52;8.55;;;;;;;17.46;100.00;95945.81;1034747;28;20034;-74
2023/07/13 00:20:43;;;;;;;11.82;8.85;;;;;;;17.46;100.00;95949.25;1032459;28;20026;-74
2023/07/13 00:21:14;;;;;;;14.50;8.80;;;;;;;17.42;100.00;95945.66;1033228;28;21480;-74
2023/07/13 00:21:44;;;;;;;12.52;9.18;;;;;;;17.44;100.00;95952.22;1034452;28;21635;-74
2023/07/13 00:22:15;;;;;;;17.00;9.38;;;;;;;17.46;100.00;95953.78;1033467;28;20033;-73
2023/07/13 00:22:45;;;;;;;12.43;8.68;;;;;;;17.45;100.00;95955.66;1036121;28;20022;-75
2023/07/13 00:23:17;;;;;;;12.48;8.63;;;;;;;17.41;100.00;95941.44;1031119;28;20562;-74
2023/07/13 00:23:48;;;;;;;12.07;8.55;;;;;;;17.42;100.00;95954.38;1035071;28;20087;-75
2023/07/13 00:24:23;;;;;;;12.00;8.90;;;;;;;17.40;100.00;95945.16;1032933;28;20072;-74
2023/07/13 00:24:55;;;;;;;15.32;9.48;;;;;;;17.42;100.00;95949.09;1032992;28;20046;-74
2023/07/13 00:25:27;;;;;;;13.35;9.05;;;;;;;17.40;100.00;95940.66;1031028;28;20029;-74
2023/07/13 00:25:58;;;;;;;16.80;9.07;;;;;;;17.44;100.00;95954.88;1043538;28;20034;-74
2023/07/13 00:26:29;;;;;;;17.83;9.73;;;;;;;17.47;100.00;95950.03;1046186;28;20481;-75
2023/07/13 00:26:59;;;;;;;13.38;9.38;;;;;;;17.39;100.00;95944.38;1035659;28;20026;-73
2023/07/13 00:27:31;;;;;;;22.50;10.60;;;;;;;17.42;100.00;95943.78;1036141;28;20476;-74
2023/07/13 00:28:02;;;;;;;11.57;7.95;;;;;;;17.46;100.00;95951.13;1030282;28;20037;-74
2023/07/13 00:28:32;;;;;;;17.25;9.32;;;;;;;17.41;100.00;95936.13;1033361;28;20885;-73
2023/07/13 00:29:03;;;;;;;17.98;8.90;;;;;;;17.48;100.00;95944.44;1030660;28;20820;-74
2023/07/13 00:29:33;;;;;;;15.60;8.27;;;;;;;17.47;100.00;95947.38;1025381;28;21202;-74
2023/07/13 00:30:05;;;;;;;16.42;9.32;;;;;;;17.43;100.00;95928.63;1030721;28;20041;-75
2023/07/13 00:30:35;;;;;;;16.38;8.63;;;;;;;17.38;100.00;95932.19;1028552;28;20026;-74
2023/07/13 00:31:06;;;;;;;12.05;8.50;;;;;;;17.44;100.00;95936.31;1032728;28;20371;-74
2023/07/13 00:31:37;;;;;;;14.82;8.73;;;;;;;17.38;100.00;95926.13;1028464;28;20026;-74
2023/07/13 00:32:09;;;;;;;17.38;8.85;;;;;;;17.42;100.00;95937.69;1030659;28;20045;-74
2023/07/13 00:32:39;;;;;;;15.45;9.50;;;;;;;17.43;100.00;95939.25;1034710;28;20491;-74
2023/07/13 00:33:10;;;;;;;15.05;8.90;;;;;;;17.42;100.00;95937.69;1035316;28;20022;-74
2023/07/13 00:33:41;;;;;;;16.02;10.00;;;;;;;17.43;100.00;95941.91;1041329;28;20037;-74
2023/07/13 00:34:12;;;;;;;16.95;9.82;;;;;;;17.40;100.00;95937.19;1039475;28;20583;-74
2023/07/13 00:34:43;;;;;;;17.45;9.65;;;;;;;17.41;100.00;95944.09;1039307;28;20064;-75
2023/07/13 00:35:14;;;;;;;10.50;8.35;;;;;;;17.41;100.00;95942.22;1043003;28;20033;-74
2023/07/13 00:35:44;;;;;;;18.42;9.43;;;;;;;17.39;100.00;95939.06;1043346;28;20060;-73
2023/07/13 00:36:15;;;;;;;16.73;9.32;;;;;;;17.34;100.00;95931.25;1047252;28;20448;-73
2023/07/13 00:36:45;;;;;;;14.07;7.93;;;;;;;17.38;100.00;95936.72;1038684;28;20538;-74
2023/07/13 00:37:16;;;;;;;19.55;9.50;;;;;;;17.37;100.00;95946.56;1035001;28;20029;-74
2023/07/13 00:37:46;;;;;;;14.27;9.52;;;;;;;17.32;100.00;95930.75;1035902;28;20034;-74
2023/07/13 00:38:16;;;;;;;14.27;8.52;;;;;;;17.35;100.00;95935.47;1043072;28;20078;-74
2023/07/13 00:38:47;;;;;;;11.25;8.25;;;;;;;17.30;100.00;95924.16;1034794;28;20073;-74
2023/07/13 00:39:18;;;;;;;15.55;8.82;;;;;;;17.33;100.00;95934.19;1031865;28;20027;-74
2023/07/13 00:39:48;;;;;;;16.70;9.45;;;;;;;17.35;100.00;95935.47;1031196;28;20038;-73
2023/07/13 00:40:19;;;;;;;15.25;8.93;;;;;;;17.38;100.00;95937.50;1038931;28;20390;-72
2023/07/13 00:40:49;;;;;;;15.90;8.32;;;;;;;17.41;100.00;95938.78;1037485;28;20034;-73
2023/07/13 00:41:20;;;;;;;13.80;9.10;;;;;;;17.33;100.00;95928.88;1039882;28;20028;-75
2023/07/13 00:41:50;;;;;;;13.80;9.35;;;;;;;17.41;100.00;95942.22;1041584;28;20021;-74
2023/07/13 00:42:20;;;;;;;16.55;8.70;;;;;;;17.38;100.00;95931.41;1039012;28;20039;-74
2023/07/13 00:42:52;;;;;;;19.63;9.68;;;;;;;17.34;100.00;95931.25;1033263;28;20026;-74
2023/07/13 00:43:25;;;;;;;14.98;9.30;;;;;;;17.35;100.00;95937.31;1033295;28;20033;-74
2023/07/13 00:43:56;;;;;;;19.52;10.50;;;;;;;17.38;100.00;95939.38;1030355;28;20224;-75
2023/07/13 00:44:26;;;;;;;19.00;10.57;;;;;;;17.34;100.00;95930.47;1031787;28;20030;-75
2023/07/13 00:45:12;;;;;;;17.02;10.35;;;;;;;17.39;100.00;95938.28;1026762;28;20086;-74
2023/07/13 00:45:42;;;;;;;15.15;8.48;;;;;;;17.39;100.00;95943.59;1028889;28;20031;-73
2023/07/13 00:46:21;;;;;;;20.80;8.85;;;;;;;17.38;100.00;95936.72;1030150;28;20025;-74
2023/07/13 00:46:52;;;;;;;17.98;9.68;;;;;;;17.40;100.00;95942.50;1036330;28;20192;-74
2023/07/13 00:47:23;;;;;;;13.98;8.85;;;;;;;17.40;100.00;95943.31;1034607;28;20096;-74
2023/07/13 00:47:54;;;;;;;15.32;9.70;;;;;;;17.39;100.00;95935.63;1034241;28;20060;-74
2023/07/13 00:48:29;;;;;;;16.13;9.20;;;;;;;17.34;100.00;95935.78;1031795;28;20032;-75
2023/07/13 00:49:02;;;;;;;15.52;9.30;;;;;;;17.38;100.00;95945.47;1033458;28;20207;-73
2023/07/13 00:49:33;;;;;;;12.93;9.57;;;;;;;17.42;100.00;95948.31;1039493;28;20025;-74
2023/07/13 00:50:05;;;;;;;15.75;8.90;;;;;;;17.37;100.00;95945.75;1038830;28;20017;-74
2023/07/13 00:50:36;;;;;;;14.57;10.23;;;;;;;17.38;100.00;95950.00;1032039;28;20022;-73
2023/07/13 00:51:06;;;;;;;17.45;9.63;;;;;;;17.37;100.00;95945.75;1034249;28;20022;-74
2023/07/13 00:51:58;;;;;;;18.40;10.68;;;;;;;17.36;100.00;95944.19;1037819;28;20018;-75
2023/07/13 00:52:29;;;;;;;15.35;9.10;;;;;;;17.37;100.00;95948.41;1033122;28;20053;-74
2023/07/13 00:52:59;;;;;;;22.38;10.63;;;;;;;17.41;100.00;95952.03;1032097;28;20437;-72
2023/07/13 00:53:30;;;;;;;15.38;8.73;;;;;;;17.41;100.00;95952.81;1034778;28;20029;-73
2023/07/13 00:54:04;;;;;;;12.18;8.80;;;;;;;17.39;100.00;95944.38;1033209;28;20030;-75
2023/07/13 00:54:39;;;;;;;17.50;9.80;;;;;;;17.34;100.00;95933.13;1026772;28;20034;-75
2023/07/13 00:55:10;;;;;;;21.00;9.60;;;;;;;17.37;100.00;95935.94;1028906;28;20030;-73
2023/07/13 00:55:40;;;;;;;13.10;9.07;;;;;;;17.41;100.00;95941.44;1034678;28;20575;-73
2023/07/13 00:56:11;;;;;;;15.50;8.88;;;;;;;17.30;100.00;95921.50;1030890;28;20014;-73
2023/07/13 00:56:41;;;;;;;12.70;8.90;;;;;;;17.38;100.00;95945.47;1039705;28;20020;-74
2023/07/13 00:57:16;;;;;;;14.82;8.95;;;;;;;17.42;100.00;95941.13;1034924;28;20037;-74
2023/07/13 00:57:47;;;;;;;13.82;9.30;;;;;;;17.38;100.00;95936.72;1030456;28;20014;-75
2023/07/13 00:58:17;;;;;;;19.08;10.63;;;;;;;17.43;100.00;95949.84;1038737;28;20599;-73
2023/07/13 00:58:47;;;;;;;11.93;8.38;;;;;;;17.36;100.00;95933.59;1038729;28;20115;-74
2023/07/13 00:59:18;;;;;;;13.93;8.73;;;;;;;17.40;100.00;95937.19;1030657;28;20078;-74
2023/07/13 00:59:52;;;;;;;13.25;9.10;;;;;;;17.42;100.00;95937.69;1027457;28;20027;-74
2023/07/13 01:00:22;;;;;;;16.85;9.13;;;;;;;17.39;100.00;95938.28;1030431;28;20512;-75
2023/07/13 01:00:53;;;;;;;14.48;8.85;;;;;;;17.42;100.00;95943.78;1030701;28;20018;-74
2023/07/13 01:01:23;;;;;;;15.60;8.85;;;;;;;17.42;100.00;95943.00;1031774;28;20037;-73
2023/07/13 01:01:54;;;;;;;17.38;9.15;;;;;;;17.43;100.00;95944.56;1033317;28;20174;-73
2023/07/13 01:02:25;;;;;;;12.25;8.68;;;;;;;17.43;100.00;95949.84;1036653;28;20083;-74
2023/07/13 01:02:56;;;;;;;12.48;8.25;;;;;;;17.44;100.00;95946.16;1030433;28;20029;-74
2023/07/13 01:03:26;;;;;;;13.77;8.55;;;;;;;17.44;100.00;95948.78;1032837;28;20861;-73
2023/07/13 01:03:57;;;;;;;16.92;9.30;;;;;;;17.43;100.00;95944.56;1034170;28;20049;-74
2023/07/13 01:04:27;;;;;;;17.40;8.90;;;;;;;17.42;100.00;95940.34;1030932;28;20025;-74
2023/07/13 01:04:57;;;;;;;14.13;8.85;;;;;;;17.43;100.00;95945.34;1037911;28;20025;-73
2023/07/13 01:05:28;;;;;;;13.80;8.95;;;;;;;17.40;100.00;95938.00;1031401;28;20492;-74
2023/07/13 01:05:58;;;;;;;11.35;7.75;;;;;;;17.33;100.00;95934.97;1030565;28;20031;-72
2023/07/13 01:06:30;;;;;;;16.38;8.80;;;;;;;17.40;100.00;95939.84;1034917;28;20029;-73
2023/07/13 01:07:00;;;;;;;14.13;8.77;;;;;;;17.41;100.00;95941.44;1035026;28;20092;-73
2023/07/13 01:07:31;;;;;;;16.65;8.10;;;;;;;17.38;100.00;95939.38;1034843;28;20017;-74
2023/07/13 01:08:03;;;;;;;15.05;9.52;;;;;;;17.41;100.00;95938.78;1030607;28;20026;-73
2023/07/13 01:08:34;;;;;;;15.27;9.27;;;;;;;17.41;100.00;95933.47;1033955;28;20085;-73
2023/07/13 01:09:05;;;;;;;17.98;8.10;;;;;;;17.34;100.00;95931.25;1034621;28;20018;-74
2023/07/13 01:09:35;;;;;;;16.38;8.60;;;;;;;17.39;100.00;95938.28;1031794;28;20444;-75
2023/07/13 01:10:06;;;;;;;14.48;8.80;;;;;;;17.35;100.00;95935.47;1042686;28;20029;-73
2023/07/13 01:10:39;;;;;;;14.52;8.68;;;;;;;17.36;100.00;95938.88;1033071;28;20022;-74
2023/07/13 01:11:10;;;;;;;10.98;7.13;;;;;;;17.36;100.00;95928.28;1035213;28;20018;-72
2023/07/13 01:11:41;;;;;;;13.60;8.73;;;;;;;17.36;100.00;95922.97;1035846;28;20049;-74
2023/07/13 01:12:13;;;;;;;10.73;8.18;;;;;;;17.35;100.00;95921.41;1035931;28;20404;-73
2023/07/13 01:12:44;;;;;;;11.15;8.02;;;;;;;17.32;100.00;95919.34;1045480;28;20052;-73
2023/07/13 01:13:14;;;;;;;13.68;9.02;;;;;;;17.30;100.00;95919.66;1035140;28;20743;-73
2023/07/13 01:13:45;;;;;;;14.52;8.90;;;;;;;17.31;100.00;95915.94;1039002;28;20026;-74
2023/07/13 01:14:16;;;;;;;13.35;8.50;;;;;;;17.30;100.00;95918.88;1034583;28;20082;-74
2023/07/13 01:14:47;;;;;;;16.60;9.77;;;;;;;17.28;100.00;95910.44;1032703;28;20019;-73
2023/07/13 01:15:53;;;;;;;14.90;9.38;;;;;;;17.32;100.00;95919.34;1035440;28;20022;-74
2023/07/13 01:16:28;;;;;;;15.77;8.73;;;;;;;17.27;100.00;95917.63;1019835;28;20027;-74
2023/07/13 01:17:00;;;;;;;11.88;8.35;;;;;;;17.28;100.00;95923.69;1027533;28;20054;-72
2023/07/13 01:17:32;;;;;;;15.77;9.55;;;;;;;17.26;100.00;95917.91;1030475;28;20093;-73
2023/07/13 01:18:04;;;;;;;16.17;8.93;;;;;;;17.28;100.00;95921.81;1022263;28;20446;-73
2023/07/13 01:18:35;;;;;;;13.35;9.07;;;;;;;17.26;100.00;95931.16;1018339;28;20032;-73
2023/07/13 01:19:13;;;;;;;13.98;9.40;;;;;;;17.26;100.00;95929.28;1024162;28;20040;-75
2023/07/13 01:19:44;;;;;;;18.23;9.25;;;;;;;17.27;100.00;95928.22;1038807;28;20521;-74
2023/07/13 01:20:14;;;;;;;12.95;8.57;;;;;;;17.20;100.00;95922.53;1037463;28;20022;-74
2023/07/13 01:20:54;;;;;;;11.27;8.45;;;;;;;17.22;100.00;95923.03;1031748;28;20034;-74
2023/07/13 01:21:25;;;;;;;12.55;9.07;;;;;;;17.26;100.00;95929.28;1031322;28;20044;-73
2023/07/13 01:21:56;;;;;;;16.85;9.27;;;;;;;17.26;100.00;95936.47;1032382;28;20141;-74
2023/07/13 01:22:26;;;;;;;14.57;9.52;;;;;;;17.26;100.00;95937.25;1033095;28;20034;-73
2023/07/13 01:22:57;;;;;;;11.52;8.52;;;;;;;17.23;100.00;95926.47;1039022;28;20029;-73
2023/07/13 01:23:28;;;;;;;14.63;8.77;;;;;;;17.20;100.00;95920.69;1043037;28;20032;-74
2023/07/13 01:23:58;;;;;;;16.40;9.43;;;;;;;17.23;100.00;95923.81;1034928;28;20029;-73
2023/07/13 01:24:29;;;;;;;15.90;8.88;;;;;;;17.27;100.00;95924.75;1038589;28;20120;-73
2023/07/13 01:24:59;;;;;;;15.38;9.25;;;;;;;17.24;100.00;95936.00;1038693;28;20061;-75
2023/07/13 01:25:30;;;;;;;15.45;9.65;;;;;;;17.27;100.00;95930.88;1036281;28;20025;-73
2023/07/13 01:26:00;;;;;;;15.35;8.60;;;;;;;17.23;100.00;95927.22;1032933;28;20042;-74
2023/07/13 01:26:30;;;;;;;12.75;9.10;;;;;;;17.25;100.00;95933.03;1038910;28;20025;-73
2023/07/13 01:27:01;;;;;;;12.98;8.60;;;;;;;17.19;100.00;95910.38;1037614;28;20402;-74
2023/07/13 01:27:33;;;;;;;16.20;9.23;;;;;;;17.23;100.00;95923.81;1035792;28;20022;-75
2023/07/13 01:28:04;;;;;;;14.02;9.40;;;;;;;17.23;100.00;95916.63;1038959;28;20026;-74
2023/07/13 01:28:36;;;;;;;12.73;8.60;;;;;;;17.18;100.00;95917.53;1038937;28;20057;-74
2023/07/13 01:29:07;;;;;;;14.48;8.88;;;;;;;17.23;100.00;95924.59;1031862;28;20634;-74
2023/07/13 01:29:41;;;;;;;18.15;9.70;;;;;;;17.18;100.00;95920.19;1043383;28;20090;-75
2023/07/13 01:30:12;;;;;;;16.70;10.13;;;;;;;17.22;100.00;95928.31;1043887;28;20033;-74
2023/07/13 01:30:45;;;;;;;12.52;8.77;;;;;;;17.17;100.00;95923.94;1036256;28;20550;-74
2023/07/13 01:31:15;;;;;;;18.92;9.50;;;;;;;17.17;100.00;95926.59;1033386;28;20033;-74
2023/07/13 01:31:46;;;;;;;17.38;10.05;;;;;;;17.20;100.00;95926.00;1034655;28;20030;-75
2023/07/13 01:32:23;;;;;;;9.85;7.95;;;;;;;17.18;100.00;95922.84;1032348;28;20077;-74
2023/07/13 01:32:53;;;;;;;13.73;9.15;;;;;;;17.22;100.00;95927.56;1033805;28;20029;-74
2023/07/13 01:33:24;;;;;;;17.85;9.45;;;;;;;17.17;100.00;95926.59;1031064;28;20030;-74
2023/07/13 01:33:54;;;;;;;16.23;10.02;;;;;;;17.18;100.00;95922.06;1029160;28;20460;-74
2023/07/13 01:34:25;;;;;;;15.32;8.90;;;;;;;17.18;100.00;95917.53;1033518;28;20636;-73
2023/07/13 01:34:56;;;;;;;13.10;8.60;;;;;;;17.18;100.00;95917.53;1031423;28;20104;-74
2023/07/13 01:35:27;;;;;;;14.48;8.57;;;;;;;17.26;100.00;95929.28;1031931;28;20846;-73
2023/07/13 01:35:57;;;;;;;16.77;9.88;;;;;;;17.24;100.00;95918.22;1036360;28;20541;-74
2023/07/13 01:36:28;;;;;;;15.40;9.70;;;;;;;17.18;100.00;95912.22;1038360;28;20036;-75
2023/07/13 01:36:58;;;;;;;15.23;10.10;;;;;;;17.25;100.00;95919.00;1033108;28;20040;-71
2023/07/13 01:37:33;;;;;;;17.25;10.15;;;;;;;17.20;100.00;95914.56;1032481;28;20384;-74
2023/07/13 01:38:04;;;;;;;12.63;9.55;;;;;;;17.15;100.00;95902.22;1030395;28;20143;-75
2023/07/13 01:38:34;;;;;;;15.57;9.30;;;;;;;17.23;100.00;95913.19;1033838;28;20511;-73
2023/07/13 01:39:05;;;;;;;17.95;10.38;;;;;;;17.20;100.00;95906.63;1027277;28;20053;-74
2023/07/13 01:39:35;;;;;;;14.82;9.75;;;;;;;17.20;100.00;95909.28;1029041;28;20033;-73
2023/07/13 01:40:08;;;;;;;14.65;8.93;;;;;;;17.18;100.00;95911.44;1030409;28;20043;-74
2023/07/13 01:40:38;;;;;;;14.40;9.15;;;;;;;17.19;100.00;95913.00;1035411;28;20495;-73
2023/07/13 01:41:09;;;;;;;13.18;9.25;;;;;;;17.18;100.00;95906.94;1034317;28;20037;-73
2023/07/13 01:41:39;;;;;;;15.57;9.90;;;;;;;17.12;100.00;95905.47;1033512;28;20076;-73
2023/07/13 01:42:10;;;;;;;13.02;8.73;;;;;;;17.15;100.00;95906.75;1034927;28;20030;-75
2023/07/13 01:42:41;;;;;;;14.75;9.35;;;;;;;17.17;100.00;95910.69;1039147;28;20045;-74
2023/07/13 01:43:11;;;;;;;11.93;8.77;;;;;;;17.18;100.00;95909.59;1033441;28;20021;-74
2023/07/13 01:43:42;;;;;;;14.77;9.25;;;;;;;17.16;100.00;95911.75;1026271;28;20112;-75
2023/07/13 01:44:12;;;;;;;23.40;10.05;;;;;;;17.17;100.00;95915.19;1027006;28;20043;-74
2023/07/13 01:44:43;;;;;;;21.95;11.07;;;;;;;17.06;100.00;95898.72;1031912;28;20133;-74
2023/07/13 01:45:13;;;;;;;17.60;10.23;;;;;;;17.18;100.00;95917.53;1035063;28;20026;-74
2023/07/13 01:45:44;;;;;;;15.70;9.68;;;;;;;17.12;100.00;95908.13;1038207;28;20021;-75
2023/07/13 01:46:15;;;;;;;18.70;10.13;;;;;;;17.20;100.00;95920.69;1030658;28;20792;-74
2023/07/13 01:46:45;;;;;;;14.80;10.10;;;;;;;17.14;100.00;95911.28;1027958;28;20042;-74
2023/07/13 01:47:16;;;;;;;16.77;10.90;;;;;;;17.20;100.00;95919.88;1029480;28;20041;-75
2023/07/13 01:47:46;;;;;;;18.58;9.55;;;;;;;17.13;100.00;95908.91;1027876;28;20038;-75
2023/07/13 01:48:17;;;;;;;17.92;9.85;;;;;;;17.14;100.00;95913.16;1029833;28;20093;-74
2023/07/13 01:48:47;;;;;;;15.63;10.23;;;;;;;17.13;100.00;95914.22;1034638;28;20033;-73
2023/07/13 01:49:18;;;;;;;15.68;9.95;;;;;;;17.15;100.00;95912.06;1030097;28;20117;-75
2023/07/13 01:49:49;;;;;;;17.73;10.40;;;;;;;17.20;100.00;95925.19;1030558;28;20420;-75
2023/07/13 01:50:20;;;;;;;16.55;10.30;;;;;;;17.19;100.00;95924.41;1030525;28;20068;-74
2023/07/13 01:50:50;;;;;;;17.75;10.48;;;;;;;17.20;100.00;95927.84;1028923;28;20035;-74
2023/07/13 01:51:21;;;;;;;15.32;9.75;;;;;;;17.19;100.00;95920.97;1030666;28;20069;-74
2023/07/13 01:51:51;;;;;;;17.45;11.20;;;;;;;17.22;100.00;95927.56;1030285;28;20026;-75
2023/07/13 01:52:22;;;;;;;17.10;9.57;;;;;;;17.22;100.00;95932.84;1030434;28;20049;-74
2023/07/13 01:52:53;;;;;;;16.73;10.13;;;;;;;17.20;100.00;95933.94;1026445;28;20023;-74
2023/07/13 01:53:23;;;;;;;17.08;10.75;;;;;;;17.21;100.00;95937.38;1033066;28;20076;-74
2023/07/13 01:53:54;;;;;;;15.98;10.55;;;;;;;17.22;100.00;95928.31;1029320;28;20151;-74
2023/07/13 01:54:24;;;;;;;17.85;9.23;;;;;;;17.17;100.00;95936.41;1030533;28;20030;-75
2023/07/13 01:54:55;;;;;;;21.92;11.48;;;;;;;17.20;100.00;95936.59;1036991;28;20574;-74
2023/07/13 01:55:25;;;;;;;18.95;11.30;;;;;;;17.23;100.00;95934.41;1035906;28;20017;-74
2023/07/13 01:55:55;;;;;;;17.02;9.93;;;;;;;17.18;100.00;95933.44;1036496;28;20041;-74
2023/07/13 01:56:26;;;;;;;18.33;10.00;;;;;;;17.20;100.00;95939.25;1035277;28;20088;-74
2023/07/13 01:56:56;;;;;;;20.88;11.38;;;;;;;17.22;100.00;95938.94;1042885;28;20033;-75
2023/07/13 01:57:27;;;;;;;15.88;10.30;;;;;;;17.22;100.00;95941.59;1039570;28;20029;-73
2023/07/13 01:57:57;;;;;;;20.15;11.68;;;;;;;17.20;100.00;95944.56;1034643;28;20040;-74
2023/07/13 01:58:28;;;;;;;17.48;11.30;;;;;;;17.19;100.00;95935.00;1035632;28;20128;-74
2023/07/13 01:58:58;;;;;;;19.15;9.77;;;;;;;17.10;100.00;95920.09;1030561;28;20073;-75
2023/07/13 01:59:29;;;;;;;18.95;10.95;;;;;;;17.17;100.00;95926.59;1030536;28;20512;-74
2023/07/13 01:59:59;;;;;;;16.85;9.45;;;;;;;17.18;100.00;95933.44;1034709;28;20034;-73
2023/07/13 02:00:30;;;;;;;14.45;10.30;;;;;;;17.17;100.00;95934.53;1034485;28;20033;-74
2023/07/13 02:01:00;;;;;;;17.70;10.38;;;;;;;17.16;100.00;95938.25;1030289;28;20566;-74
2023/07/13 02:01:31;;;;;;;15.45;9.90;;;;;;;17.16;100.00;95929.53;1031907;28;20022;-75
2023/07/13 02:02:01;;;;;;;18.80;10.65;;;;;;;17.14;100.00;95937.00;1038985;28;20366;-75
2023/07/13 02:02:31;;;;;;;19.38;11.10;;;;;;;17.13;100.00;95932.78;1038725;28;20075;-74
2023/07/13 02:03:02;;;;;;;18.02;10.95;;;;;;;17.11;100.00;95922.47;1031008;28;20069;-75
2023/07/13 02:03:32;;;;;;;17.60;10.85;;;;;;;17.11;100.00;95932.31;1026478;28;20050;-74
2023/07/13 02:04:03;;;;;;;24.90;11.70;;;;;;;17.11;100.00;95927.78;1033777;28;20076;-74
2023/07/13 02:04:34;;;;;;;19.38;11.82;;;;;;;17.11;100.00;95938.38;1030501;28;20022;-74
2023/07/13 02:05:05;;;;;;;17.27;10.70;;;;;;;17.13;100.00;95925.59;1032736;28;20022;-74
2023/07/13 02:05:36;;;;;;;17.98;11.20;;;;;;;16.99;100.00;95911.59;1032731;28;20860;-74
2023/07/13 02:06:06;;;;;;;22.63;11.27;;;;;;;17.12;100.00;95932.00;1029568;28;20082;-74
2023/07/13 02:06:37;;;;;;;18.02;10.38;;;;;;;17.12;100.00;95929.34;1033942;28;20041;-74
2023/07/13 02:07:08;;;;;;;17.95;11.05;;;;;;;17.11;100.00;95933.09;1030340;28;20026;-75
2023/07/13 02:07:39;;;;;;;18.70;11.30;;;;;;;17.14;100.00;95927.19;1028387;28;20022;-75
2023/07/13 02:08:09;;;;;;;20.35;11.75;;;;;;;17.12;100.00;95929.34;1033994;28;20018;-73
2023/07/13 02:08:40;;;;;;;17.88;11.20;;;;;;;17.05;100.00;95928.19;1034100;28;20013;-74
2023/07/13 02:09:11;;;;;;;16.45;10.55;;;;;;;17.10;100.00;95933.38;1030166;28;20022;-75
2023/07/13 02:09:42;;;;;;;16.58;10.05;;;;;;;17.10;100.00;95930.72;1031559;28;20474;-74
2023/07/13 02:10:12;;;;;;;17.60;10.23;;;;;;;17.06;100.00;95933.19;1034016;28;20030;-74
2023/07/13 02:10:43;;;;;;;18.33;11.10;;;;;;;17.09;100.00;95937.88;1032819;28;20040;-74
2023/07/13 02:11:13;;;;;;;16.98;11.52;;;;;;;17.08;100.00;95933.69;1033550;28;20018;-75
2023/07/13 02:11:44;;;;;;;20.33;11.98;;;;;;;17.02;100.00;95926.91;1033949;28;20387;-72
2023/07/13 02:12:14;;;;;;;20.90;11.77;;;;;;;17.05;100.00;95928.97;1031494;28;20014;-74
2023/07/13 02:12:45;;;;;;;15.60;10.88;;;;;;;17.02;100.00;95926.91;1034284;28;20427;-73
2023/07/13 02:13:15;;;;;;;16.90;10.90;;;;;;;17.06;100.00;95930.53;1034207;28;20102;-75
2023/07/13 02:13:45;;;;;;;25.40;11.82;;;;;;;17.07;100.00;95932.13;1034522;28;20056;-73
2023/07/13 02:14:16;;;;;;;16.83;10.80;;;;;;;17.06;100.00;95935.84;1030794;28;20022;-73
2023/07/13 02:14:47;;;;;;;15.75;9.98;;;;;;;17.02;100.00;95924.25;1030682;28;20026;-75
2023/07/13 02:15:17;;;;;;;15.82;11.05;;;;;;;17.02;100.00;95920.81;1038551;28;20017;-74
2023/07/13 02:15:50;;;;;;;21.92;12.40;;;;;;;17.05;100.00;95928.19;1038408;28;20037;-74
2023/07/13 02:16:21;;;;;;;21.40;10.80;;;;;;;17.06;100.00;95925.22;1038528;28;20029;-75
2023/07/13 02:16:51;;;;;;;18.02;11.73;;;;;;;17.04;100.00;95932.72;1034291;28;20033;-74
2023/07/13 02:17:22;;;;;;;15.30;10.05;;;;;;;17.03;100.00;95936.41;1034801;28;20041;-75
2023/07/13 02:17:52;;;;;;;18.02;10.35;;;;;;;17.03;100.00;95933.78;1038330;28;20049;-74
2023/07/13 02:18:23;;;;;;;18.60;10.52;;;;;;;17.02;100.00;95939.38;1032329;28;20034;-73
2023/07/13 02:18:55;;;;;;;18.92;11.73;;;;;;;17.00;100.00;95939.69;1033948;28;20065;-75
2023/07/13 02:19:25;;;;;;;14.45;10.25;;;;;;;17.00;100.00;95931.75;1034322;28;20498;-74
2023/07/13 02:19:55;;;;;;;18.65;10.75;;;;;;;17.02;100.00;95939.38;1030407;28;20022;-74
2023/07/13 02:20:26;;;;;;;20.50;11.15;;;;;;;17.02;100.00;95940.16;1030374;28;20435;-74
2023/07/13 02:20:56;;;;;;;19.83;10.63;;;;;;;16.96;100.00;95928.09;1028904;28;20032;-73
2023/07/13 02:21:27;;;;;;;22.90;11.50;;;;;;;17.00;100.00;95945.00;1033895;28;20049;-74
2023/07/13 02:21:58;;;;;;;17.83;11.25;;;;;;;16.97;100.00;95929.69;1031214;28;20088;-75
2023/07/13 02:22:28;;;;;;;18.50;11.18;;;;;;;16.99;100.00;95938.09;1030881;28;20716;-73
2023/07/13 02:22:59;;;;;;;16.58;10.93;;;;;;;16.96;100.00;95931.53;1029271;28;20034;-73
2023/07/13 02:23:29;;;;;;;20.58;11.32;;;;;;;17.00;100.00;95941.53;1031112;28;20373;-75